sensor_id;sensor_type;location;lat;lon;timestamp;P1;durP1;ratioP1;P2;durP2;ratioP2
73959;SDS011;62316;48.920;2.342;2022-07-23T00:03:32;27.75;;;24.00;;
73959;SDS011;62316;48.920;2.342;2022-07-23T00:06:06;24.25;;;23.25;;
73959;SDS011;62316;48.920;2.342;2022-07-23T00:08:42;29.00;;;27.50;;
73959;SDS011;62316;48.920;2.342;2022-07-23T00:11:18;19.67;;;18.67;;
73959;SDS011;62316;48.920;2.342;2022-07-23T00:14:28;25.75;;;22.50;;
73959;SDS011;62316;48.920;2.342;2022-07-23T00:16:55;26.50;;;24.25;;
73959;SDS011;62316;48.920;2.342;2022-07-23T00:19:33;22.25;;;20.25;;
73959;SDS011;62316;48.920;2.342;2022-07-23T00:25:03;19.00;;;14.00;;
73959;SDS011;62316;48.920;2.342;2022-07-23T00:27:33;23.50;;;21.25;;
73959;SDS011;62316;48.920;2.342;2022-07-23T00:30:05;23.50;;;22.00;;
73959;SDS011;62316;48.920;2.342;2022-07-23T00:32:53;30.00;;;25.75;;
73959;SDS011;62316;48.920;2.342;2022-07-23T00:35:51;29.75;;;22.75;;
73959;SDS011;62316;48.920;2.342;2022-07-23T00:38:26;29.50;;;27.00;;
73959;SDS011;62316;48.920;2.342;2022-07-23T00:44:39;25.00;;;24.25;;
73959;SDS011;62316;48.920;2.342;2022-07-23T00:47:21;27.25;;;25.00;;
73959;SDS011;62316;48.920;2.342;2022-07-23T00:49:56;24.50;;;21.00;;
73959;SDS011;62316;48.920;2.342;2022-07-23T00:52:26;23.00;;;22.00;;
73959;SDS011;62316;48.920;2.342;2022-07-23T00:54:52;29.50;;;23.50;;
73959;SDS011;62316;48.920;2.342;2022-07-23T00:57:22;30.00;;;25.00;;
73959;SDS011;62316;48.920;2.342;2022-07-23T00:59:52;25.50;;;23.25;;
73959;SDS011;62316;48.920;2.342;2022-07-23T01:05:01;20.75;;;16.50;;
73959;SDS011;62316;48.920;2.342;2022-07-23T01:07:52;18.25;;;17.25;;
73959;SDS011;62316;48.920;2.342;2022-07-23T01:10:52;24.25;;;21.00;;
73959;SDS011;62316;48.920;2.342;2022-07-23T01:13:43;27.25;;;22.00;;
73959;SDS011;62316;48.920;2.342;2022-07-23T01:19:26;20.25;;;17.50;;
73959;SDS011;62316;48.920;2.342;2022-07-23T01:21:53;15.75;;;14.75;;
73959;SDS011;62316;48.920;2.342;2022-07-23T01:24:32;19.50;;;17.50;;
73959;SDS011;62316;48.920;2.342;2022-07-23T01:27:08;22.25;;;20.50;;
73959;SDS011;62316;48.920;2.342;2022-07-23T01:29:40;23.00;;;21.75;;
73959;SDS011;62316;48.920;2.342;2022-07-23T01:39:34;21.75;;;21.00;;
73959;SDS011;62316;48.920;2.342;2022-07-23T01:42:14;29.25;;;23.50;;
73959;SDS011;62316;48.920;2.342;2022-07-23T01:44:54;24.50;;;21.75;;
73959;SDS011;62316;48.920;2.342;2022-07-23T01:47:56;19.50;;;19.00;;
73959;SDS011;62316;48.920;2.342;2022-07-23T01:50:33;17.67;;;17.33;;
73959;SDS011;62316;48.920;2.342;2022-07-23T01:53:23;21.25;;;19.50;;
73959;SDS011;62316;48.920;2.342;2022-07-23T01:56:10;23.67;;;20.00;;
73959;SDS011;62316;48.920;2.342;2022-07-23T01:58:52;24.00;;;22.50;;
73959;SDS011;62316;48.920;2.342;2022-07-23T02:01:42;18.75;;;18.75;;
73959;SDS011;62316;48.920;2.342;2022-07-23T02:04:19;24.50;;;24.25;;
73959;SDS011;62316;48.920;2.342;2022-07-23T02:07:16;21.00;;;20.25;;
73959;SDS011;62316;48.920;2.342;2022-07-23T02:13:14;25.75;;;24.50;;
73959;SDS011;62316;48.920;2.342;2022-07-23T02:15:45;24.75;;;22.00;;
73959;SDS011;62316;48.920;2.342;2022-07-23T02:18:50;25.50;;;22.25;;
73959;SDS011;62316;48.920;2.342;2022-07-23T02:21:31;26.50;;;22.25;;
73959;SDS011;62316;48.920;2.342;2022-07-23T02:24:00;27.50;;;26.25;;
73959;SDS011;62316;48.920;2.342;2022-07-23T02:26:32;30.00;;;25.33;;
73959;SDS011;62316;48.920;2.342;2022-07-23T02:29:11;25.25;;;23.75;;
73959;SDS011;62316;48.920;2.342;2022-07-23T02:31:48;20.50;;;19.75;;
73959;SDS011;62316;48.920;2.342;2022-07-23T02:34:43;25.00;;;23.00;;
73959;SDS011;62316;48.920;2.342;2022-07-23T02:37:25;32.00;;;24.75;;
73959;SDS011;62316;48.920;2.342;2022-07-23T02:39:51;29.75;;;26.25;;
73959;SDS011;62316;48.920;2.342;2022-07-23T02:42:27;26.25;;;24.25;;
73959;SDS011;62316;48.920;2.342;2022-07-23T02:45:23;20.00;;;20.00;;
73959;SDS011;62316;48.920;2.342;2022-07-23T02:47:56;22.75;;;21.50;;
73959;SDS011;62316;48.920;2.342;2022-07-23T02:50:52;20.25;;;19.00;;
73959;SDS011;62316;48.920;2.342;2022-07-23T02:53:33;20.25;;;18.00;;
73959;SDS011;62316;48.920;2.342;2022-07-23T02:56:00;30.75;;;26.75;;
73959;SDS011;62316;48.920;2.342;2022-07-23T02:58:52;23.75;;;23.75;;
73959;SDS011;62316;48.920;2.342;2022-07-23T03:01:43;21.00;;;19.50;;
73959;SDS011;62316;48.920;2.342;2022-07-23T03:04:16;18.25;;;18.00;;
73959;SDS011;62316;48.920;2.342;2022-07-23T03:07:06;25.67;;;25.67;;
73959;SDS011;62316;48.920;2.342;2022-07-23T03:09:33;17.00;;;15.75;;
73959;SDS011;62316;48.920;2.342;2022-07-23T03:12:03;23.75;;;21.75;;
73959;SDS011;62316;48.920;2.342;2022-07-23T03:14:42;18.00;;;16.75;;
73959;SDS011;62316;48.920;2.342;2022-07-23T03:17:16;24.75;;;21.75;;
73959;SDS011;62316;48.920;2.342;2022-07-23T03:20:06;25.50;;;20.25;;
73959;SDS011;62316;48.920;2.342;2022-07-23T03:22:39;24.00;;;22.00;;
73959;SDS011;62316;48.920;2.342;2022-07-23T03:25:10;25.00;;;21.75;;
73959;SDS011;62316;48.920;2.342;2022-07-23T03:27:41;23.25;;;22.75;;
73959;SDS011;62316;48.920;2.342;2022-07-23T03:30:26;24.50;;;21.75;;
73959;SDS011;62316;48.920;2.342;2022-07-23T03:33:05;22.33;;;21.00;;
73959;SDS011;62316;48.920;2.342;2022-07-23T03:35:34;20.50;;;20.00;;
73959;SDS011;62316;48.920;2.342;2022-07-23T03:38:00;24.25;;;19.50;;
73959;SDS011;62316;48.920;2.342;2022-07-23T03:40:43;16.25;;;15.00;;
73959;SDS011;62316;48.920;2.342;2022-07-23T03:43:14;22.00;;;20.25;;
73959;SDS011;62316;48.920;2.342;2022-07-23T03:45:49;19.00;;;18.50;;
73959;SDS011;62316;48.920;2.342;2022-07-23T03:52:07;26.00;;;24.75;;
73959;SDS011;62316;48.920;2.342;2022-07-23T03:54:37;21.50;;;17.00;;
73959;SDS011;62316;48.920;2.342;2022-07-23T03:57:09;19.25;;;15.25;;
73959;SDS011;62316;48.920;2.342;2022-07-23T03:59:52;19.75;;;18.00;;
73959;SDS011;62316;48.920;2.342;2022-07-23T04:05:47;25.50;;;20.00;;
73959;SDS011;62316;48.920;2.342;2022-07-23T04:08:43;20.75;;;20.00;;
73959;SDS011;62316;48.920;2.342;2022-07-23T04:11:11;13.75;;;11.25;;
73959;SDS011;62316;48.920;2.342;2022-07-23T04:17:14;22.50;;;19.75;;
73959;SDS011;62316;48.920;2.342;2022-07-23T04:19:59;27.25;;;22.25;;
73959;SDS011;62316;48.920;2.342;2022-07-23T04:22:31;22.50;;;22.00;;
73959;SDS011;62316;48.920;2.342;2022-07-23T04:25:08;20.67;;;20.00;;
73959;SDS011;62316;48.920;2.342;2022-07-23T04:27:38;16.00;;;15.00;;
73959;SDS011;62316;48.920;2.342;2022-07-23T04:30:08;20.00;;;18.25;;
73959;SDS011;62316;48.920;2.342;2022-07-23T04:32:45;27.50;;;24.25;;
73959;SDS011;62316;48.920;2.342;2022-07-23T04:35:17;19.50;;;19.50;;
73959;SDS011;62316;48.920;2.342;2022-07-23T04:37:50;24.50;;;19.75;;
73959;SDS011;62316;48.920;2.342;2022-07-23T04:40:23;19.00;;;17.25;;
73959;SDS011;62316;48.920;2.342;2022-07-23T04:43:09;23.25;;;21.25;;
73959;SDS011;62316;48.920;2.342;2022-07-23T04:45:36;18.25;;;14.00;;
73959;SDS011;62316;48.920;2.342;2022-07-23T04:48:13;21.25;;;17.75;;
73959;SDS011;62316;48.920;2.342;2022-07-23T04:51:03;15.25;;;15.00;;
73959;SDS011;62316;48.920;2.342;2022-07-23T04:54:07;27.25;;;25.75;;
73959;SDS011;62316;48.920;2.342;2022-07-23T04:56:54;22.50;;;22.00;;
73959;SDS011;62316;48.920;2.342;2022-07-23T04:59:31;24.00;;;19.00;;
73959;SDS011;62316;48.920;2.342;2022-07-23T05:02:41;23.50;;;20.00;;
73959;SDS011;62316;48.920;2.342;2022-07-23T05:05:27;23.00;;;22.67;;
73959;SDS011;62316;48.920;2.342;2022-07-23T05:08:03;20.50;;;20.50;;
73959;SDS011;62316;48.920;2.342;2022-07-23T05:10:50;20.75;;;19.50;;
73959;SDS011;62316;48.920;2.342;2022-07-23T05:13:15;25.50;;;22.25;;
73959;SDS011;62316;48.920;2.342;2022-07-23T05:16:23;21.00;;;19.00;;
73959;SDS011;62316;48.920;2.342;2022-07-23T05:21:35;21.25;;;21.00;;
73959;SDS011;62316;48.920;2.342;2022-07-23T05:24:05;29.75;;;25.25;;
73959;SDS011;62316;48.920;2.342;2022-07-23T05:26:41;12.50;;;11.25;;
73959;SDS011;62316;48.920;2.342;2022-07-23T05:29:30;22.00;;;18.75;;
73959;SDS011;62316;48.920;2.342;2022-07-23T05:32:23;22.75;;;21.75;;
73959;SDS011;62316;48.920;2.342;2022-07-23T05:34:50;23.00;;;19.75;;
73959;SDS011;62316;48.920;2.342;2022-07-23T05:37:20;20.75;;;19.75;;
73959;SDS011;62316;48.920;2.342;2022-07-23T05:40:17;9.50;;;8.50;;
73959;SDS011;62316;48.920;2.342;2022-07-23T05:43:11;19.00;;;19.00;;
73959;SDS011;62316;48.920;2.342;2022-07-23T05:45:41;23.75;;;21.50;;
73959;SDS011;62316;48.920;2.342;2022-07-23T05:48:22;23.00;;;19.50;;
73959;SDS011;62316;48.920;2.342;2022-07-23T05:51:13;22.50;;;21.75;;
73959;SDS011;62316;48.920;2.342;2022-07-23T05:53:52;27.25;;;26.00;;
73959;SDS011;62316;48.920;2.342;2022-07-23T05:56:31;22.25;;;18.75;;
73959;SDS011;62316;48.920;2.342;2022-07-23T05:59:04;24.00;;;21.00;;
73959;SDS011;62316;48.920;2.342;2022-07-23T06:01:30;27.00;;;25.50;;
73959;SDS011;62316;48.920;2.342;2022-07-23T06:04:25;25.25;;;21.50;;
73959;SDS011;62316;48.920;2.342;2022-07-23T06:07:02;22.75;;;21.00;;
73959;SDS011;62316;48.920;2.342;2022-07-23T06:09:36;30.75;;;27.00;;
73959;SDS011;62316;48.920;2.342;2022-07-23T06:12:25;26.50;;;24.50;;
73959;SDS011;62316;48.920;2.342;2022-07-23T06:15:11;37.00;;;34.25;;
73959;SDS011;62316;48.920;2.342;2022-07-23T06:18:00;32.75;;;30.75;;
73959;SDS011;62316;48.920;2.342;2022-07-23T06:20:34;40.50;;;32.00;;
73959;SDS011;62316;48.920;2.342;2022-07-23T06:23:15;36.50;;;33.25;;
73959;SDS011;62316;48.920;2.342;2022-07-23T06:26:18;34.00;;;31.50;;
73959;SDS011;62316;48.920;2.342;2022-07-23T06:29:26;37.50;;;32.00;;
73959;SDS011;62316;48.920;2.342;2022-07-23T06:32:07;46.50;;;35.75;;
73959;SDS011;62316;48.920;2.342;2022-07-23T06:34:36;41.00;;;33.50;;
73959;SDS011;62316;48.920;2.342;2022-07-23T06:37:43;38.00;;;34.75;;
73959;SDS011;62316;48.920;2.342;2022-07-23T06:40:28;42.25;;;34.75;;
73959;SDS011;62316;48.920;2.342;2022-07-23T06:42:55;40.75;;;34.75;;
73959;SDS011;62316;48.920;2.342;2022-07-23T06:45:25;43.00;;;36.75;;
73959;SDS011;62316;48.920;2.342;2022-07-23T06:48:04;43.75;;;35.00;;
73959;SDS011;62316;48.920;2.342;2022-07-23T06:50:45;44.50;;;36.25;;
73959;SDS011;62316;48.920;2.342;2022-07-23T06:53:22;43.00;;;35.00;;
73959;SDS011;62316;48.920;2.342;2022-07-23T06:55:48;30.50;;;24.75;;
73959;SDS011;62316;48.920;2.342;2022-07-23T06:58:18;46.00;;;36.75;;
73959;SDS011;62316;48.920;2.342;2022-07-23T07:01:10;50.00;;;40.50;;
73959;SDS011;62316;48.920;2.342;2022-07-23T07:03:48;48.50;;;39.25;;
73959;SDS011;62316;48.920;2.342;2022-07-23T07:06:18;45.25;;;37.00;;
73959;SDS011;62316;48.920;2.342;2022-07-23T07:08:47;50.75;;;42.25;;
73959;SDS011;62316;48.920;2.342;2022-07-23T07:11:22;50.00;;;40.75;;
73959;SDS011;62316;48.920;2.342;2022-07-23T07:13:49;47.25;;;40.75;;
73959;SDS011;62316;48.920;2.342;2022-07-23T07:16:32;53.00;;;42.50;;
73959;SDS011;62316;48.920;2.342;2022-07-23T07:19:19;41.75;;;35.25;;
73959;SDS011;62316;48.920;2.342;2022-07-23T07:22:09;51.75;;;41.75;;
73959;SDS011;62316;48.920;2.342;2022-07-23T07:24:59;54.50;;;43.25;;
73959;SDS011;62316;48.920;2.342;2022-07-23T07:28:02;51.00;;;40.00;;
73959;SDS011;62316;48.920;2.342;2022-07-23T07:30:54;54.25;;;42.00;;
73959;SDS011;62316;48.920;2.342;2022-07-23T07:33:27;49.00;;;40.50;;
73959;SDS011;62316;48.920;2.342;2022-07-23T07:36:04;48.25;;;36.75;;
73959;SDS011;62316;48.920;2.342;2022-07-23T07:38:58;45.25;;;35.50;;
73959;SDS011;62316;48.920;2.342;2022-07-23T07:41:35;58.00;;;44.00;;
73959;SDS011;62316;48.920;2.342;2022-07-23T07:47:10;56.00;;;44.25;;
73959;SDS011;62316;48.920;2.342;2022-07-23T07:49:49;50.75;;;41.50;;
73959;SDS011;62316;48.920;2.342;2022-07-23T07:52:26;55.75;;;44.00;;
73959;SDS011;62316;48.920;2.342;2022-07-23T07:55:31;55.00;;;44.00;;
73959;SDS011;62316;48.920;2.342;2022-07-23T07:58:28;54.25;;;42.50;;
73959;SDS011;62316;48.920;2.342;2022-07-23T08:01:07;51.00;;;41.00;;
73959;SDS011;62316;48.920;2.342;2022-07-23T08:03:45;52.50;;;41.75;;
73959;SDS011;62316;48.920;2.342;2022-07-23T08:06:11;55.75;;;44.00;;
73959;SDS011;62316;48.920;2.342;2022-07-23T08:08:46;53.25;;;43.00;;
73959;SDS011;62316;48.920;2.342;2022-07-23T08:11:21;48.50;;;40.00;;
73959;SDS011;62316;48.920;2.342;2022-07-23T08:13:54;55.75;;;43.00;;
73959;SDS011;62316;48.920;2.342;2022-07-23T08:16:28;53.75;;;42.75;;
73959;SDS011;62316;48.920;2.342;2022-07-23T08:19:08;58.50;;;43.75;;
73959;SDS011;62316;48.920;2.342;2022-07-23T08:21:46;47.50;;;38.25;;
73959;SDS011;62316;48.920;2.342;2022-07-23T08:24:17;49.25;;;41.00;;
73959;SDS011;62316;48.920;2.342;2022-07-23T08:26:47;50.75;;;41.50;;
73959;SDS011;62316;48.920;2.342;2022-07-23T08:29:17;50.25;;;41.75;;
73959;SDS011;62316;48.920;2.342;2022-07-23T08:31:58;50.00;;;40.75;;
73959;SDS011;62316;48.920;2.342;2022-07-23T08:34:31;54.00;;;42.50;;
73959;SDS011;62316;48.920;2.342;2022-07-23T08:37:16;53.50;;;44.00;;
73959;SDS011;62316;48.920;2.342;2022-07-23T08:40:00;51.25;;;42.00;;
73959;SDS011;62316;48.920;2.342;2022-07-23T08:42:33;52.00;;;39.75;;
73959;SDS011;62316;48.920;2.342;2022-07-23T08:45:23;48.00;;;37.25;;
73959;SDS011;62316;48.920;2.342;2022-07-23T08:47:56;47.50;;;38.50;;
73959;SDS011;62316;48.920;2.342;2022-07-23T08:50:27;52.75;;;42.25;;
73959;SDS011;62316;48.920;2.342;2022-07-23T08:53:07;48.25;;;40.25;;
73959;SDS011;62316;48.920;2.342;2022-07-23T08:55:38;50.25;;;40.75;;
73959;SDS011;62316;48.920;2.342;2022-07-23T08:58:18;52.50;;;41.50;;
73959;SDS011;62316;48.920;2.342;2022-07-23T09:00:57;48.50;;;39.50;;
73959;SDS011;62316;48.920;2.342;2022-07-23T09:03:36;45.75;;;37.00;;
73959;SDS011;62316;48.920;2.342;2022-07-23T09:06:03;50.00;;;40.50;;
73959;SDS011;62316;48.920;2.342;2022-07-23T09:08:44;52.25;;;40.50;;
73959;SDS011;62316;48.920;2.342;2022-07-23T09:11:17;49.75;;;40.75;;
73959;SDS011;62316;48.920;2.342;2022-07-23T09:14:07;51.50;;;38.75;;
73959;SDS011;62316;48.920;2.342;2022-07-23T09:16:36;51.00;;;40.75;;
73959;SDS011;62316;48.920;2.342;2022-07-23T09:19:20;48.50;;;38.75;;
73959;SDS011;62316;48.920;2.342;2022-07-23T09:22:15;46.75;;;38.00;;
73959;SDS011;62316;48.920;2.342;2022-07-23T09:27:58;44.50;;;36.50;;
73959;SDS011;62316;48.920;2.342;2022-07-23T09:30:40;49.25;;;39.00;;
73959;SDS011;62316;48.920;2.342;2022-07-23T09:36:38;48.50;;;37.25;;
73959;SDS011;62316;48.920;2.342;2022-07-23T09:39:32;45.25;;;36.25;;
73959;SDS011;62316;48.920;2.342;2022-07-23T09:44:59;40.00;;;33.50;;
73959;SDS011;62316;48.920;2.342;2022-07-23T09:47:47;51.75;;;38.75;;
73959;SDS011;62316;48.920;2.342;2022-07-23T09:50:20;50.75;;;40.25;;
73959;SDS011;62316;48.920;2.342;2022-07-23T09:53:53;45.50;;;36.50;;
73959;SDS011;62316;48.920;2.342;2022-07-23T09:56:19;48.75;;;38.00;;
73959;SDS011;62316;48.920;2.342;2022-07-23T09:59:25;42.25;;;36.00;;
73959;SDS011;62316;48.920;2.342;2022-07-23T10:02:03;42.50;;;37.25;;
73959;SDS011;62316;48.920;2.342;2022-07-23T10:04:33;34.25;;;32.75;;
73959;SDS011;62316;48.920;2.342;2022-07-23T10:10:26;40.50;;;35.00;;
73959;SDS011;62316;48.920;2.342;2022-07-23T10:16:34;40.25;;;34.50;;
73959;SDS011;62316;48.920;2.342;2022-07-23T10:19:10;34.25;;;29.50;;
73959;SDS011;62316;48.920;2.342;2022-07-23T10:22:01;42.50;;;35.00;;
73959;SDS011;62316;48.920;2.342;2022-07-23T10:37:42;44.25;;;37.00;;
73959;SDS011;62316;48.920;2.342;2022-07-23T10:40:24;33.75;;;29.75;;
73959;SDS011;62316;48.920;2.342;2022-07-23T10:43:15;48.75;;;39.75;;
73959;SDS011;62316;48.920;2.342;2022-07-23T10:52:20;45.25;;;34.50;;
73959;SDS011;62316;48.920;2.342;2022-07-23T10:57:47;40.25;;;34.75;;
73959;SDS011;62316;48.920;2.342;2022-07-23T11:00:25;34.50;;;31.25;;
73959;SDS011;62316;48.920;2.342;2022-07-23T11:03:03;49.25;;;37.00;;
73959;SDS011;62316;48.920;2.342;2022-07-23T11:15:15;39.00;;;34.75;;
73959;SDS011;62316;48.920;2.342;2022-07-23T11:18:09;34.75;;;30.75;;
73959;SDS011;62316;48.920;2.342;2022-07-23T11:24:06;31.50;;;29.75;;
73959;SDS011;62316;48.920;2.342;2022-07-23T11:30:00;33.50;;;30.75;;
73959;SDS011;62316;48.920;2.342;2022-07-23T11:36:11;36.75;;;32.00;;
73959;SDS011;62316;48.920;2.342;2022-07-23T11:38:38;33.25;;;29.50;;
73959;SDS011;62316;48.920;2.342;2022-07-23T11:41:18;31.00;;;30.75;;
73959;SDS011;62316;48.920;2.342;2022-07-23T11:43:51;42.00;;;34.75;;
73959;SDS011;62316;48.920;2.342;2022-07-23T11:49:33;27.50;;;26.00;;
73959;SDS011;62316;48.920;2.342;2022-07-23T11:52:20;36.25;;;31.75;;
73959;SDS011;62316;48.920;2.342;2022-07-23T11:54:55;26.25;;;21.50;;
73959;SDS011;62316;48.920;2.342;2022-07-23T11:57:37;26.50;;;26.00;;
73959;SDS011;62316;48.920;2.342;2022-07-23T12:02:56;29.25;;;29.00;;
73959;SDS011;62316;48.920;2.342;2022-07-23T12:05:39;33.00;;;26.50;;
73959;SDS011;62316;48.920;2.342;2022-07-23T12:08:09;28.00;;;25.50;;
73959;SDS011;62316;48.920;2.342;2022-07-23T12:10:42;31.50;;;29.50;;
73959;SDS011;62316;48.920;2.342;2022-07-23T12:13:19;34.25;;;31.50;;
73959;SDS011;62316;48.920;2.342;2022-07-23T12:15:52;36.50;;;30.75;;
73959;SDS011;62316;48.920;2.342;2022-07-23T12:18:26;38.75;;;33.50;;
73959;SDS011;62316;48.920;2.342;2022-07-23T12:21:07;35.75;;;31.75;;
73959;SDS011;62316;48.920;2.342;2022-07-23T12:24:05;44.50;;;36.00;;
73959;SDS011;62316;48.920;2.342;2022-07-23T12:27:08;36.75;;;33.00;;
73959;SDS011;62316;48.920;2.342;2022-07-23T12:29:39;34.25;;;31.75;;
73959;SDS011;62316;48.920;2.342;2022-07-23T12:32:42;37.75;;;32.25;;
73959;SDS011;62316;48.920;2.342;2022-07-23T12:35:23;33.75;;;30.50;;
73959;SDS011;62316;48.920;2.342;2022-07-23T12:38:14;33.00;;;30.75;;
73959;SDS011;62316;48.920;2.342;2022-07-23T12:43:35;37.50;;;34.00;;
73959;SDS011;62316;48.920;2.342;2022-07-23T12:46:18;30.00;;;29.00;;
73959;SDS011;62316;48.920;2.342;2022-07-23T12:48:51;31.00;;;28.75;;
73959;SDS011;62316;48.920;2.342;2022-07-23T12:51:50;36.25;;;31.75;;
73959;SDS011;62316;48.920;2.342;2022-07-23T12:54:26;30.25;;;29.00;;
73959;SDS011;62316;48.920;2.342;2022-07-23T13:09:16;30.00;;;27.25;;
73959;SDS011;62316;48.920;2.342;2022-07-23T13:12:06;22.00;;;21.50;;
73959;SDS011;62316;48.920;2.342;2022-07-23T13:15:00;38.25;;;30.50;;
73959;SDS011;62316;48.920;2.342;2022-07-23T13:17:36;34.50;;;31.50;;
73959;SDS011;62316;48.920;2.342;2022-07-23T13:23:37;26.50;;;26.25;;
73959;SDS011;62316;48.920;2.342;2022-07-23T13:26:37;24.75;;;22.00;;
73959;SDS011;62316;48.920;2.342;2022-07-23T13:29:29;34.25;;;29.50;;
73959;SDS011;62316;48.920;2.342;2022-07-23T13:32:05;38.50;;;32.00;;
73959;SDS011;62316;48.920;2.342;2022-07-23T13:34:40;33.00;;;31.50;;
73959;SDS011;62316;48.920;2.342;2022-07-23T13:37:58;32.25;;;31.25;;
73959;SDS011;62316;48.920;2.342;2022-07-23T13:40:48;34.50;;;31.50;;
73959;SDS011;62316;48.920;2.342;2022-07-23T13:43:28;29.75;;;26.50;;
73959;SDS011;62316;48.920;2.342;2022-07-23T13:46:22;36.75;;;31.25;;
73959;SDS011;62316;48.920;2.342;2022-07-23T13:49:09;31.25;;;31.00;;
73959;SDS011;62316;48.920;2.342;2022-07-23T13:51:45;36.50;;;32.00;;
73959;SDS011;62316;48.920;2.342;2022-07-23T13:54:23;34.00;;;32.25;;
73959;SDS011;62316;48.920;2.342;2022-07-23T13:57:01;32.75;;;30.50;;
73959;SDS011;62316;48.920;2.342;2022-07-23T13:59:42;33.75;;;29.25;;
73959;SDS011;62316;48.920;2.342;2022-07-23T14:02:12;33.00;;;28.00;;
73959;SDS011;62316;48.920;2.342;2022-07-23T14:04:46;34.75;;;31.50;;
73959;SDS011;62316;48.920;2.342;2022-07-23T14:10:06;28.25;;;27.00;;
73959;SDS011;62316;48.920;2.342;2022-07-23T14:13:02;25.25;;;23.25;;
73959;SDS011;62316;48.920;2.342;2022-07-23T14:15:54;24.00;;;23.50;;
73959;SDS011;62316;48.920;2.342;2022-07-23T14:18:30;23.75;;;22.75;;
73959;SDS011;62316;48.920;2.342;2022-07-23T14:21:27;27.25;;;25.75;;
73959;SDS011;62316;48.920;2.342;2022-07-23T14:23:55;27.25;;;26.25;;
73959;SDS011;62316;48.920;2.342;2022-07-23T14:26:21;34.25;;;27.50;;
73959;SDS011;62316;48.920;2.342;2022-07-23T14:29:01;28.50;;;27.25;;
73959;SDS011;62316;48.920;2.342;2022-07-23T14:31:31;33.50;;;30.75;;
73959;SDS011;62316;48.920;2.342;2022-07-23T14:34:00;27.50;;;24.25;;
73959;SDS011;62316;48.920;2.342;2022-07-23T14:39:36;30.25;;;25.75;;
73959;SDS011;62316;48.920;2.342;2022-07-23T14:42:10;24.00;;;21.75;;
73959;SDS011;62316;48.920;2.342;2022-07-23T14:47:31;23.25;;;22.50;;
73959;SDS011;62316;48.920;2.342;2022-07-23T14:50:10;23.25;;;22.00;;
73959;SDS011;62316;48.920;2.342;2022-07-23T14:52:54;19.75;;;19.75;;
73959;SDS011;62316;48.920;2.342;2022-07-23T14:55:42;25.50;;;22.75;;
73959;SDS011;62316;48.920;2.342;2022-07-23T14:58:26;27.75;;;25.00;;
73959;SDS011;62316;48.920;2.342;2022-07-23T15:01:36;26.00;;;22.75;;
73959;SDS011;62316;48.920;2.342;2022-07-23T15:04:11;28.00;;;24.75;;
73959;SDS011;62316;48.920;2.342;2022-07-23T15:10:19;21.75;;;21.75;;
73959;SDS011;62316;48.920;2.342;2022-07-23T15:12:58;23.75;;;22.25;;
73959;SDS011;62316;48.920;2.342;2022-07-23T15:15:37;25.00;;;24.00;;
73959;SDS011;62316;48.920;2.342;2022-07-23T15:18:13;20.75;;;19.00;;
73959;SDS011;62316;48.920;2.342;2022-07-23T15:20:49;21.25;;;20.00;;
73959;SDS011;62316;48.920;2.342;2022-07-23T15:23:40;19.25;;;19.00;;
73959;SDS011;62316;48.920;2.342;2022-07-23T15:26:51;18.00;;;16.50;;
73959;SDS011;62316;48.920;2.342;2022-07-23T15:29:47;19.75;;;19.50;;
73959;SDS011;62316;48.920;2.342;2022-07-23T15:32:45;17.50;;;17.00;;
73959;SDS011;62316;48.920;2.342;2022-07-23T15:35:23;20.00;;;19.33;;
73959;SDS011;62316;48.920;2.342;2022-07-23T15:38:27;18.00;;;18.00;;
73959;SDS011;62316;48.920;2.342;2022-07-23T15:41:14;20.00;;;19.50;;
73959;SDS011;62316;48.920;2.342;2022-07-23T15:43:54;19.50;;;17.25;;
73959;SDS011;62316;48.920;2.342;2022-07-23T15:47:00;18.00;;;17.00;;
73959;SDS011;62316;48.920;2.342;2022-07-23T15:50:22;23.00;;;22.75;;
73959;SDS011;62316;48.920;2.342;2022-07-23T15:56:13;18.00;;;17.00;;
73959;SDS011;62316;48.920;2.342;2022-07-23T15:58:57;18.25;;;17.50;;
73959;SDS011;62316;48.920;2.342;2022-07-23T16:01:38;18.33;;;15.33;;
73959;SDS011;62316;48.920;2.342;2022-07-23T16:07:23;21.50;;;20.00;;
73959;SDS011;62316;48.920;2.342;2022-07-23T16:10:17;17.50;;;17.50;;
73959;SDS011;62316;48.920;2.342;2022-07-23T16:13:15;18.75;;;17.75;;
73959;SDS011;62316;48.920;2.342;2022-07-23T16:16:03;20.00;;;19.67;;
73959;SDS011;62316;48.920;2.342;2022-07-23T16:19:00;16.00;;;15.00;;
73959;SDS011;62316;48.920;2.342;2022-07-23T16:21:37;21.00;;;19.67;;
73959;SDS011;62316;48.920;2.342;2022-07-23T16:24:43;19.00;;;18.50;;
73959;SDS011;62316;48.920;2.342;2022-07-23T16:27:34;17.50;;;17.00;;
73959;SDS011;62316;48.920;2.342;2022-07-23T16:30:15;18.00;;;16.25;;
73959;SDS011;62316;48.920;2.342;2022-07-23T16:33:13;19.75;;;18.25;;
73959;SDS011;62316;48.920;2.342;2022-07-23T16:39:24;18.00;;;16.50;;
73959;SDS011;62316;48.920;2.342;2022-07-23T16:42:13;14.75;;;13.50;;
73959;SDS011;62316;48.920;2.342;2022-07-23T16:44:50;17.75;;;14.75;;
73959;SDS011;62316;48.920;2.342;2022-07-23T16:47:32;18.00;;;17.00;;
73959;SDS011;62316;48.920;2.342;2022-07-23T16:50:36;17.75;;;17.00;;
73959;SDS011;62316;48.920;2.342;2022-07-23T16:53:27;17.75;;;14.50;;
73959;SDS011;62316;48.920;2.342;2022-07-23T16:59:19;11.25;;;11.00;;
73959;SDS011;62316;48.920;2.342;2022-07-23T17:01:49;15.33;;;12.00;;
73959;SDS011;62316;48.920;2.342;2022-07-23T17:05:13;15.25;;;13.00;;
73959;SDS011;62316;48.920;2.342;2022-07-23T17:08:28;13.25;;;13.25;;
73959;SDS011;62316;48.920;2.342;2022-07-23T17:11:07;12.50;;;12.50;;
73959;SDS011;62316;48.920;2.342;2022-07-23T17:13:35;10.25;;;10.25;;
73959;SDS011;62316;48.920;2.342;2022-07-23T17:22:00;17.50;;;13.50;;
73959;SDS011;62316;48.920;2.342;2022-07-23T17:24:45;20.00;;;18.75;;
73959;SDS011;62316;48.920;2.342;2022-07-23T17:27:20;17.50;;;13.75;;
73959;SDS011;62316;48.920;2.342;2022-07-23T17:30:11;14.50;;;13.25;;
73959;SDS011;62316;48.920;2.342;2022-07-23T17:32:50;16.00;;;14.50;;
73959;SDS011;62316;48.920;2.342;2022-07-23T17:35:29;10.00;;;9.00;;
73959;SDS011;62316;48.920;2.342;2022-07-23T17:37:58;14.75;;;14.00;;
73959;SDS011;62316;48.920;2.342;2022-07-23T17:40:40;17.00;;;17.00;;
73959;SDS011;62316;48.920;2.342;2022-07-23T17:43:12;17.25;;;14.75;;
73959;SDS011;62316;48.920;2.342;2022-07-23T17:46:00;16.25;;;15.25;;
73959;SDS011;62316;48.920;2.342;2022-07-23T17:48:32;14.25;;;12.00;;
73959;SDS011;62316;48.920;2.342;2022-07-23T17:51:09;13.25;;;13.00;;
73959;SDS011;62316;48.920;2.342;2022-07-23T17:54:05;12.75;;;11.50;;
73959;SDS011;62316;48.920;2.342;2022-07-23T17:56:53;15.25;;;13.50;;
73959;SDS011;62316;48.920;2.342;2022-07-23T17:59:21;10.50;;;8.50;;
73959;SDS011;62316;48.920;2.342;2022-07-23T18:01:56;15.75;;;14.00;;
73959;SDS011;62316;48.920;2.342;2022-07-23T18:07:17;15.25;;;13.75;;
73959;SDS011;62316;48.920;2.342;2022-07-23T18:09:51;15.75;;;13.75;;
73959;SDS011;62316;48.920;2.342;2022-07-23T18:15:28;17.75;;;15.50;;
73959;SDS011;62316;48.920;2.342;2022-07-23T18:21:55;16.75;;;16.00;;
73959;SDS011;62316;48.920;2.342;2022-07-23T18:24:34;14.50;;;12.75;;
73959;SDS011;62316;48.920;2.342;2022-07-23T18:27:06;20.75;;;20.75;;